Aérodrome :
LOGIN :

S'inscrire | Disclaimer

   EN    FR    IT 

 










Légende :    VFR   VFR Marginal   IFR   IFR Intensif   IFR Très Intensif
Visi : 
Plafond : 
>= 8 km
>= 3000ft
5 à 8 km
1000 à 3000 ft
1500m à 5 km
500 à 1000 ft
800 à 1500m
200 à 500 ft
< 800m
< 200 ft
Symboles :   Orages  Brouillard  Fortes neiges  Fortes précipitations  Vent > 20 kt
SIGMETs :   Divers  Orages  Givrage  Turbulence  Onde Orograph.  Cendres Volcan.






- Altitude de l'aérodrome : 416 ft
- Code IATA : OVD


LEAS - Asturias

DERNIER METAR :
  • 020600Z VRB01KT 9999 SCT011 BKN014 BKN017 11/10 Q1015 NOSIG

METARs EXPIRÉS :
  • 020530Z 00000KT 9999 FEW010 BKN014 BKN040 11/10 Q1015 NOSIG
  • 020500Z VRB01KT 9999 FEW014 BKN040 BKN070 11/10 Q1015 NOSIG
  • 020430Z VRB02KT 9999 SCT024 BKN042 BKN068 11/10 Q1015 NOSIG
  • 020400Z 06003KT 350V110 9999 FEW008 SCT014 BKN024 11/10 Q1014 NOSIG
  • 020330Z AUTO 06003KT 350V110 9999 BKN007 OVC012 11/11 Q1014
  • 020300Z AUTO 07003KT 330V110 9999 BKN007 OVC012 11/11 Q1014

TAF TAF LEAS
Valide du 02 à 03h jusqu'au 03 à 03h UTC


020200Z 0203/0303 07009KT 9999 SCT010 SCT020 TX13/0214Z TN08/0206Z
PROB40
TEMPO 0203/0207 3000 -RA BR BKN005 BKN010
PROB30
TEMPO 0203/0207 1500 BCFG BKN005
PROB40
TEMPO 0205/0214 3000 RA SHRA BKN010 SCT030TCU



MET'MAP, la Météo Aéronautique d'un coup d'oeil ! - Copyright ORBIFLY Décembre 2007 - Disclaimer

ORBIFLY MET'MAP TEAM :

Programmation & Développement : Alexandra Zaïnal
Sur une idée originale de : Baudouin d'Aumeries
Assistance à la programmation : Marc-Olivier Méhu
Soutien technique & logistique : Manuel Goepfert

Contact : metmap@orbifly.com




SOURCES & CREDITS :

   NOAA